KLVJ

Pearland Regional Airport

Houston, Texas, USA
METAR KLVJ 141653Z AUTO 28014G20KT 10SM OVC019 09/06 A2999 RMK AO2 SLP156 T00890056
Observed Flight Rules
Dec-14 @ 16:53 UTC (20 minutes ago) Marginal Visual Flight Rules
Wind Visibility Clouds
280° at 14 knots
 Gusting to 20 knots
10 miles
  • Overcast at 1,900' AGL
Temperatures Readings
Current 9°C / 48°F
Dewpoint 6°C / 43°F
Humidity 82%
Altimeter 29.99" Hg
Pressure 1015.6 hPa
Elevation 12
METAR KLVJ 141653Z AUTO 28014G20KT 10SM OVC019 09/06 A2999 RMK AO2 SLP156 T00890056
Observed Flight Rules
Dec-14 @ 16:53 UTC
(20 minutes ago)
MVFR
Wind Visibility
280° at 14 knots
 Gusting to 20 knots
10 miles
Clouds
  • Overcast at 1,900' AGL
Temperature Dewpoint
9°C / 48°F 6°C / 43°F
Humidity Altimeter Pressure
82% 29.99" Hg 1015.6 hPa